Time;durP1;ratioP1;P1;durP2;ratioP2;P2;SDS_P1;SDS_P2;PMS_P1;PMS_P2;Temp;Humidity;BMP_temperature;BMP_pressure;BME280_temperature;BME280_humidity;BME280_pressure;Samples;Min_cycle;Max_cycle;Signal;HPM_P1;HPM_P2
2022/04/14 00:00:36;;;;;;;;;22.67;21.33;;;;;33.32;25.62;101523.00;5011001;28;47247;-82
2022/04/14 00:03:02;;;;;;;;;26.00;20.33;;;;;33.32;25.52;101522.13;4996308;28;45348;-82
2022/04/14 00:05:27;;;;;;;;;24.67;24.67;;;;;33.44;25.79;101556.19;4994918;28;45302;-81
2022/04/14 00:07:52;;;;;;;;;19.67;19.67;;;;;33.17;25.85;101530.34;4995946;28;45473;-82
2022/04/14 00:10:18;;;;;;;;;24.00;21.33;;;;;33.27;25.54;101532.53;4996044;28;45431;-81
2022/04/14 00:12:43;;;;;;;;;23.67;23.67;;;;;33.30;25.77;101549.72;4995866;28;45526;-81
2022/04/14 00:15:11;;;;;;;;;8.33;5.33;;;;;33.00;25.73;101523.19;5011136;28;45297;-82
2022/04/14 00:17:36;;;;;;;;;25.33;24.33;;;;;32.90;26.02;101522.00;5027899;28;45408;-82
2022/04/14 00:20:08;;;;;;;;;28.33;25.00;;;;;33.15;26.21;101562.56;4995686;28;45270;-82
2022/04/14 00:22:34;;;;;;;;;27.00;27.00;;;;;33.05;25.89;101552.25;4996083;28;45324;-81
2022/04/14 00:24:59;;;;;;;;;27.33;25.00;;;;;32.95;26.00;101536.34;4986333;28;45425;-82
2022/04/14 00:27:25;;;;;;;;;25.00;24.00;;;;;33.03;26.13;101548.72;4975171;28;45322;-81
2022/04/14 00:29:50;;;;;;;;;20.00;18.00;;;;;33.16;25.83;101567.09;4975796;28;46313;-81
2022/04/14 00:32:16;;;;;;;;;8.00;6.33;;;;;32.81;26.15;101550.97;4974853;28;45770;-81
2022/04/14 00:34:41;;;;;;;;;23.33;21.33;;;;;32.63;26.47;101546.53;4976118;28;45350;-80
2022/04/14 00:37:09;;;;;;;;;24.00;24.00;;;;;32.80;26.22;101538.19;4958279;28;45300;-81
2022/04/14 00:39:35;;;;;;;;;26.00;25.00;;;;;32.86;26.31;101558.03;4976096;28;46190;-81
2022/04/14 00:42:01;;;;;;;;;28.00;27.00;;;;;32.82;25.89;101558.19;4975847;28;45331;-81
2022/04/14 00:44:26;;;;;;;;;24.33;23.00;;;;;32.75;25.93;101532.09;4975749;28;45433;-81
2022/04/14 00:46:52;;;;;;;;;26.00;19.67;;;;;32.85;26.34;101551.63;4958238;28;45631;-81
2022/04/14 00:49:19;;;;;;;;;23.33;22.00;;;;;32.90;25.96;101554.09;4958229;28;48392;-81
2022/04/14 00:51:44;;;;;;;;;29.00;26.00;;;;;32.71;26.31;101515.91;4975807;28;45274;-81
2022/04/14 00:54:09;;;;;;;;;25.33;25.33;;;;;32.85;25.80;101540.63;4992175;28;45255;-82
2022/04/14 00:56:35;;;;;;;;;25.67;24.00;;;;;32.96;25.85;101564.72;4995577;28;45332;-81
2022/04/14 00:59:00;;;;;;;;;28.67;27.33;;;;;32.47;26.29;101552.97;4994906;28;46272;-81
2022/04/14 01:01:26;;;;;;;;;26.00;24.67;;;;;32.31;26.92;101560.41;4995460;28;45395;-82
2022/04/14 01:03:53;;;;;;;;;26.67;26.00;;;;;32.49;26.87;101559.28;4995502;28;45263;-82
2022/04/14 01:06:20;;;;;;;;;24.67;23.00;;;;;32.60;26.47;101539.41;4995646;28;45529;-81
2022/04/14 01:09:16;;;;;;;;;24.67;24.67;;;;;32.61;25.97;101541.16;4993913;28;47497;-82
2022/04/14 01:11:33;;;;;;;;;28.33;27.00;;;;;32.75;26.28;101553.19;4995073;28;45326;-82
2022/04/14 01:13:58;;;;;;;;;22.00;22.00;;;;;32.65;26.10;101550.97;4994969;28;45358;-81
2022/04/14 01:16:23;;;;;;;;;27.00;23.33;;;;;32.72;25.99;101551.50;4995344;28;45638;-82
2022/04/14 01:18:49;;;;;;;;;28.67;28.67;;;;;32.38;26.27;101522.47;4977370;28;48076;-81
2022/04/14 01:21:14;;;;;;;;;22.00;21.67;;;;;32.45;26.12;101543.09;4995213;28;45484;-81
2022/04/14 01:23:42;;;;;;;;;24.00;23.00;;;;;32.47;26.62;101558.47;4977723;28;45426;-81
2022/04/14 01:26:08;;;;;;;;;28.33;27.00;;;;;32.39;26.39;101527.88;4993554;28;45405;-81
2022/04/14 01:28:34;;;;;;;;;25.00;22.00;;;;;32.51;26.06;101544.59;4994650;28;46183;-81
2022/04/14 01:30:59;;;;;;;;;22.33;22.33;;;;;32.49;26.41;101537.31;4994950;28;45412;-81
2022/04/14 01:33:24;;;;;;;;;24.33;21.33;;;;;32.41;25.76;101528.66;4995408;28;45499;-81
2022/04/14 01:35:57;;;;;;;;;24.67;23.33;;;;;32.37;25.87;101521.56;4977219;28;45458;-81
2022/04/14 01:38:22;;;;;;;;;25.00;22.33;;;;;32.55;25.83;101547.03;4977146;28;47237;-81
2022/04/14 01:40:48;;;;;;;;;24.00;22.33;;;;;32.66;26.14;101573.84;4995064;28;45247;-81
2022/04/14 01:43:13;;;;;;;;;36.33;31.00;;;;;32.66;26.17;101566.50;4994939;28;45381;-82
2022/04/14 01:45:38;;;;;;;;;23.67;22.33;;;;;32.25;26.63;101523.22;4995020;28;45298;-82
2022/04/14 01:48:04;;;;;;;;;25.00;24.67;;;;;32.02;26.76;101554.75;4994874;28;45436;-82
2022/04/14 01:50:30;;;;;;;;;25.67;25.67;;;;;31.99;27.19;101568.66;4997945;28;45438;-82
2022/04/14 01:52:55;;;;;;;;;28.67;25.67;;;;;31.96;26.52;101536.78;4980818;28;45380;-83
2022/04/14 01:55:21;;;;;;;;;25.00;23.00;;;;;31.92;26.61;101526.09;4980605;28;45526;-81
2022/04/14 01:57:46;;;;;;;;;21.00;21.00;;;;;31.83;27.03;101548.56;4980113;28;47237;-81
2022/04/14 02:00:14;;;;;;;;;24.00;23.00;;;;;31.56;26.86;101521.72;4998015;28;45409;-82
2022/04/14 02:02:40;;;;;;;;;24.00;23.67;;;;;31.95;26.58;101564.31;4998311;28;45310;-82
2022/04/14 02:05:05;;;;;;;;;26.67;26.67;;;;;32.13;26.40;101549.53;4997860;28;45389;-82
2022/04/14 02:07:31;;;;;;;;;25.00;23.67;;;;;32.30;26.08;101566.88;4997724;28;46279;-82
2022/04/14 02:09:56;;;;;;;;;29.00;25.33;;;;;32.30;26.28;101565.00;4997923;28;45333;-82
2022/04/14 02:12:22;;;;;;;;;26.33;25.33;;;;;32.47;25.75;101552.97;4997697;28;45404;-82
2022/04/14 02:14:47;;;;;;;;;25.00;24.00;;;;;32.29;25.74;101541.28;4998184;28;45191;-82
2022/04/14 02:17:13;;;;;;;;;24.33;24.00;;;;;32.27;25.81;101512.13;4980187;28;46917;-82
2022/04/14 02:19:38;;;;;;;;;26.00;22.67;;;;;32.36;26.17;101527.16;4997687;28;45310;-82
2022/04/14 02:22:04;;;;;;;;;26.33;25.00;;;;;32.38;25.72;101541.69;4997967;28;45328;-81
2022/04/14 02:24:29;;;;;;;;;27.33;27.00;;;;;32.32;26.35;101534.69;4997769;28;45574;-82
2022/04/14 02:26:55;;;;;;;;;26.33;21.67;;;;;32.23;25.90;101521.53;4997715;28;46309;-82
2022/04/14 02:29:21;;;;;;;;;29.00;25.00;;;;;32.18;25.89;101520.91;4979782;28;46069;-82
2022/04/14 02:31:46;;;;;;;;;27.67;25.00;;;;;32.27;26.57;101556.06;4997666;28;45510;-82
2022/04/14 02:34:12;;;;;;;;;26.00;24.33;;;;;32.15;26.04;101527.47;4997583;28;45322;-82
2022/04/14 02:36:37;;;;;;;;;26.67;26.67;;;;;31.94;26.53;101499.41;4997492;28;45472;-82
2022/04/14 02:39:03;;;;;;;;;26.33;24.00;;;;;32.23;26.69;101551.75;4979343;28;45365;-82
2022/04/14 02:41:28;;;;;;;;;24.00;23.67;;;;;32.24;26.36;101546.16;4997743;28;45516;-83
2022/04/14 02:43:53;;;;;;;;;32.00;27.00;;;;;32.23;26.34;101527.91;4998195;28;45499;-82
2022/04/14 02:46:19;;;;;;;;;24.67;24.33;;;;;32.41;26.42;101547.00;4980222;28;46354;-81
2022/04/14 02:48:44;;;;;;;;;24.33;24.33;;;;;32.25;25.89;101525.06;4998595;28;45507;-82
2022/04/14 02:51:09;;;;;;;;;28.33;25.00;;;;;32.30;25.97;101523.81;4997998;28;45460;-82
2022/04/14 02:53:35;;;;;;;;;28.67;26.33;;;;;32.27;25.96;101517.63;4997164;28;45483;-81
2022/04/14 02:56:00;;;;;;;;;25.00;23.00;;;;;32.57;26.05;101568.91;4979499;28;46981;-81
2022/04/14 02:58:26;;;;;;;;;25.33;23.67;;;;;32.27;25.98;101523.13;4979334;28;45333;-81
2022/04/14 03:00:51;;;;;;;;;24.67;23.67;;;;;32.44;26.09;101547.69;4997302;28;45970;-81
2022/04/14 03:03:17;;;;;;;;;27.33;27.33;;;;;32.50;26.01;101562.91;4996935;28;45504;-81
2022/04/14 03:05:42;;;;;;;;;28.33;25.00;;;;;32.32;25.66;101537.44;4995648;28;47028;-81
2022/04/14 03:08:08;;;;;;;;;25.00;24.00;;;;;32.42;26.03;101568.88;4979168;28;45737;-81
2022/04/14 03:10:33;;;;;;;;;29.00;25.67;;;;;32.14;26.17;101507.38;4979318;28;45495;-81
2022/04/14 03:12:59;;;;;;;;;28.33;26.00;;;;;32.36;25.81;101533.53;4979573;28;45482;-81
2022/04/14 03:15:24;;;;;;;;;26.67;26.00;;;;;32.40;25.66;101548.84;4979167;28;46871;-81
2022/04/14 03:17:50;;;;;;;;;26.00;25.67;;;;;32.44;25.86;101558.66;4996977;28;45484;-81
2022/04/14 03:20:16;;;;;;;;;22.67;22.00;;;;;32.22;25.32;101519.75;4997021;28;45576;-81
2022/04/14 03:22:42;;;;;;;;;27.67;26.00;;;;;32.34;25.37;101546.47;4996533;28;45458;-81
2022/04/14 03:25:09;;;;;;;;;26.33;23.67;;;;;32.33;25.71;101555.69;4996156;28;48127;-81
2022/04/14 03:27:35;;;;;;;;;23.00;22.00;;;;;32.36;25.28;101565.59;5016687;28;45384;-81
2022/04/14 03:30:00;;;;;;;;;19.00;18.33;;;;;32.24;25.82;101537.03;5016580;28;45313;-81
2022/04/14 03:32:26;;;;;;;;;26.67;25.00;;;;;32.25;25.49;101547.03;5016575;28;45429;-81
2022/04/14 03:34:52;;;;;;;;;29.00;26.67;;;;;32.30;25.79;101567.75;5015000;28;47147;-81
2022/04/14 03:37:18;;;;;;;;;22.00;22.00;;;;;32.25;25.64;101571.72;5015744;28;45529;-80
2022/04/14 03:39:44;;;;;;;;;29.33;26.33;;;;;32.07;26.18;101582.81;5015145;28;45356;-81
2022/04/14 03:42:09;;;;;;;;;27.33;23.33;;;;;31.89;26.13;101567.44;5016363;28;45439;-81
2022/04/14 03:44:35;;;;;;;;;25.00;23.00;;;;;31.82;26.36;101555.91;5016168;28;47213;-81
2022/04/14 03:47:00;;;;;;;;;26.67;23.33;;;;;31.94;26.60;101577.16;5014823;28;46097;-82
2022/04/14 03:49:25;;;;;;;;;23.00;22.00;;;;;31.89;25.90;101565.56;5016175;28;46237;-81
2022/04/14 03:51:54;;;;;;;;;28.00;26.00;;;;;31.94;26.56;101582.66;5014763;28;46288;-81
2022/04/14 03:54:19;;;;;;;;;13.00;11.33;;;;;31.81;26.63;101552.31;5015859;28;46167;-80
2022/04/14 03:56:46;;;;;;;;;28.67;28.00;;;;;31.97;26.46;101581.59;5015880;28;45258;-81
2022/04/14 03:59:13;;;;;;;;;26.00;25.00;;;;;31.95;26.38;101578.03;5015679;28;45380;-81
2022/04/14 04:01:39;;;;;;;;;26.00;23.33;;;;;31.90;26.51;101586.53;5015974;28;45386;-81
2022/04/14 04:04:04;;;;;;;;;27.00;25.33;;;;;31.92;26.04;101579.09;5014201;28;47487;-81
2022/04/14 04:06:30;;;;;;;;;28.00;24.50;;;;;31.89;26.42;101572.91;5015507;28;45487;-80
2022/04/14 04:08:55;;;;;;;;;26.67;26.67;;;;;31.97;26.29;101584.34;5016174;28;45375;-80
2022/04/14 04:11:20;;;;;;;;;26.33;25.33;;;;;32.03;26.43;101574.84;5015111;28;45650;-81
2022/04/14 04:13:46;;;;;;;;;29.67;26.33;;;;;31.90;26.16;101563.69;5014306;28;48081;-81
2022/04/14 04:16:11;;;;;;;;;27.67;24.67;;;;;31.74;26.08;101560.97;5015819;28;45408;-82
2022/04/14 04:18:36;;;;;;;;;24.67;24.67;;;;;31.85;26.27;101579.56;5015733;28;45746;-80
2022/04/14 04:21:02;;;;;;;;;21.67;21.67;;;;;31.84;26.63;101580.53;5015597;28;45379;-81
2022/04/14 04:23:27;;;;;;;;;26.00;26.00;;;;;31.76;26.14;101576.38;5015528;28;46087;-81
2022/04/14 04:25:53;;;;;;;;;22.00;22.00;;;;;31.59;26.84;101582.81;5014273;28;45770;-81
2022/04/14 04:28:18;;;;;;;;;28.00;26.33;;;;;31.48;26.74;101582.50;5015503;28;45468;-81
2022/04/14 04:30:43;;;;;;;;;21.33;19.33;;;;;31.64;26.58;101575.22;5015544;28;45420;-81
2022/04/14 04:33:08;;;;;;;;;29.67;27.33;;;;;31.57;26.73;101556.41;5015424;28;51056;-81
2022/04/14 04:35:34;;;;;;;;;26.00;24.00;;;;;31.59;26.18;101557.22;5013684;28;45519;-80
2022/04/14 04:37:59;;;;;;;;;26.67;26.67;;;;;31.77;26.30;101585.47;5014300;28;45384;-80
2022/04/14 04:40:25;;;;;;;;;25.67;23.33;;;;;31.57;26.29;101548.19;5014744;28;45224;-90
2022/04/14 04:42:50;;;;;;;;;22.67;22.67;;;;;31.53;25.99;101536.50;5016429;28;45588;-89
2022/04/14 04:45:16;;;;;;;;;26.33;25.33;;;;;31.44;25.99;101528.81;5014887;28;47139;-88
2022/04/14 04:47:41;;;;;;;;;30.33;28.33;;;;;31.44;26.06;101543.38;5015008;28;45499;-88
2022/04/14 04:50:07;;;;;;;;;28.33;26.33;;;;;31.52;26.16;101564.91;5014391;28;45325;-88
2022/04/14 04:52:34;;;;;;;;;20.67;19.00;;;;;31.37;26.10;101554.81;5014799;28;48191;-89
2022/04/14 04:54:59;;;;;;;;;27.00;26.00;;;;;31.31;26.49;101561.53;4999929;28;45354;-89
2022/04/14 04:57:24;;;;;;;;;26.67;25.67;;;;;31.38;26.42;101587.63;5012266;28;45507;-89
2022/04/14 04:59:50;;;;;;;;;24.00;24.00;;;;;31.50;26.48;101612.59;5011736;28;45408;-88
2022/04/14 05:02:15;;;;;;;;;25.67;24.33;;;;;30.94;26.38;101537.00;5022249;28;46954;-88
2022/04/14 05:04:40;;;;;;;;;25.00;21.00;;;;;31.06;26.61;101568.34;5014922;28;45459;-88
2022/04/14 05:07:06;;;;;;;;;30.00;26.67;;;;;31.14;26.33;101567.94;5014875;28;45334;-88
2022/04/14 05:09:31;;;;;;;;;30.00;30.00;;;;;31.36;26.51;101596.91;5014684;28;45408;-87
2022/04/14 05:11:57;;;;;;;;;28.00;25.67;;;;;31.61;26.40;101635.72;5014999;28;47673;-86
2022/04/14 05:14:22;;;;;;;;;27.67;24.33;;;;;31.24;26.62;101584.75;5016002;28;45680;-87
2022/04/14 05:16:48;;;;;;;;;28.67;26.67;;;;;30.96;26.24;101546.00;5032006;28;46008;-87
2022/04/14 05:19:13;;;;;;;;;28.67;28.00;;;;;31.41;26.28;101614.00;5026612;28;45522;-82
2022/04/14 05:21:38;;;;;;;;;26.67;24.00;;;;;31.32;26.38;101596.16;5031198;28;45526;-83
2022/04/14 05:24:04;;;;;;;;;28.33;25.00;;;;;31.07;26.50;101586.56;5026358;28;45377;-83
2022/04/14 05:26:29;;;;;;;;;25.67;23.33;;;;;31.07;26.77;101632.25;5018141;28;45418;-84
2022/04/14 05:28:55;;;;;;;;;27.67;23.33;;;;;31.14;26.15;101617.28;4982085;28;45255;-83
2022/04/14 05:31:21;;;;;;;;;28.00;24.67;;;;;31.30;26.08;101620.06;4976002;28;48049;-86
2022/04/14 05:33:47;;;;;;;;;25.67;25.67;;;;;31.37;26.19;101626.97;4990613;28;45266;-85
2022/04/14 05:36:12;;;;;;;;;26.33;26.33;;;;;31.16;26.21;101589.78;4980956;28;45257;-83
2022/04/14 05:38:37;;;;;;;;;28.00;26.67;;;;;31.44;26.44;101631.13;4998864;28;45235;-82
2022/04/14 05:41:03;;;;;;;;;29.67;28.67;;;;;31.16;26.40;101590.66;5011775;28;45768;-83
2022/04/14 05:43:30;;;;;;;;;27.33;27.33;;;;;31.05;26.43;101568.44;4998284;28;45227;-86
2022/04/14 05:45:56;;;;;;;;;29.67;28.33;;;;;31.19;26.37;101595.09;4981327;28;45424;-83
2022/04/14 05:48:21;;;;;;;;;29.67;27.33;;;;;30.93;26.15;101543.44;4980869;28;45258;-83
2022/04/14 05:50:49;;;;;;;;;33.00;27.67;;;;;31.58;26.17;101641.38;4998335;28;45414;-81
2022/04/14 05:53:15;;;;;;;;;30.67;27.00;;;;;31.51;25.86;101633.56;5003665;28;45465;-86
2022/04/14 05:55:41;;;;;;;;;30.33;29.33;;;;;31.12;26.08;101583.56;5014723;28;45480;-85
2022/04/14 05:58:07;;;;;;;;;29.33;27.33;;;;;31.16;26.05;101570.59;4980785;28;45505;-87
2022/04/14 06:00:35;;;;;;;;;31.00;30.67;;;;;31.38;26.04;101600.41;4980497;28;48667;-86
2022/04/14 06:03:00;;;;;;;;;31.00;28.00;;;;;31.30;26.12;101587.16;4987744;28;46125;-85
2022/04/14 06:05:27;;;;;;;;;30.67;29.33;;;;;31.43;26.10;101601.94;4999420;28;45411;-85
2022/04/14 06:07:53;;;;;;;;;30.00;27.00;;;;;31.72;25.88;101648.84;5000113;28;45623;-85
2022/04/14 06:10:19;;;;;;;;;27.00;26.33;;;;;31.39;25.92;101592.13;4992989;28;48114;-85
2022/04/14 06:12:44;;;;;;;;;29.00;26.00;;;;;31.58;26.15;101626.78;4980158;28;45785;-84
2022/04/14 06:15:10;;;;;;;;;36.33;31.67;;;;;31.70;26.51;101627.94;4979801;28;45398;-84
2022/04/14 06:17:35;;;;;;;;;33.00;31.00;;;;;31.69;26.37;101632.56;4997630;28;45485;-84
2022/04/14 06:20:03;;;;;;;;;36.00;31.33;;;;;31.47;26.51;101584.34;4997267;28;46124;-83
2022/04/14 06:22:28;;;;;;;;;30.00;30.00;;;;;31.71;26.14;101625.13;4997527;28;45695;-83
2022/04/14 06:24:56;;;;;;;;;35.33;32.00;;;;;31.90;26.16;101649.66;4993310;28;45484;-83
2022/04/14 06:27:22;;;;;;;;;35.33;31.67;;;;;31.58;26.37;101596.63;5015934;28;45397;-84
2022/04/14 06:29:48;;;;;;;;;19.00;17.33;;;;;31.80;26.56;101637.41;5017290;28;45438;-85
2022/04/14 06:32:14;;;;;;;;;36.33;33.33;;;;;31.67;26.51;101612.53;5015741;28;45456;-84
2022/04/14 06:34:39;;;;;;;;;36.00;31.67;;;;;31.78;26.53;101623.78;5015347;28;45508;-85
2022/04/14 06:37:04;;;;;;;;;35.67;32.00;;;;;32.04;26.51;101665.34;5017578;28;45463;-85
2022/04/14 06:39:30;;;;;;;;;35.00;33.67;;;;;32.05;26.64;101661.59;5015813;28;48218;-84
2022/04/14 06:41:55;;;;;;;;;37.67;34.00;;;;;31.68;25.93;101575.91;5017358;28;45316;-85
2022/04/14 06:44:20;;;;;;;;;34.00;33.00;;;;;32.08;26.44;101652.31;5016162;28;45365;-85
2022/04/14 06:46:46;;;;;;;;;38.00;32.33;;;;;31.97;26.39;101626.38;5016592;28;45223;-80
2022/04/14 06:49:11;;;;;;;;;37.33;34.00;;;;;32.02;26.34;101623.34;5015748;28;47926;-84
2022/04/14 06:51:36;;;;;;;;;34.33;33.00;;;;;32.02;26.42;101595.91;5029428;28;48333;-84
2022/04/14 06:54:02;;;;;;;;;37.33;34.33;;;;;32.37;26.01;101647.91;4997659;28;45251;-84
2022/04/14 06:56:27;;;;;;;;;38.67;34.00;;;;;32.37;26.58;101647.91;5027566;28;45321;-83
2022/04/14 06:58:53;;;;;;;;;42.33;37.00;;;;;32.24;26.06;101646.88;5019624;28;48279;-86
2022/04/14 07:01:18;;;;;;;;;39.00;36.00;;;;;32.38;26.19;101671.66;5017964;28;45429;-84
2022/04/14 07:03:43;;;;;;;;;46.67;36.67;;;;;32.53;26.63;101678.06;5022190;28;45231;-83
2022/04/14 07:06:09;;;;;;;;;41.00;36.67;;;;;32.58;26.22;101669.59;5027804;28;45269;-84
2022/04/14 07:08:34;;;;;;;;;46.33;39.00;;;;;32.46;26.35;101647.38;5017232;28;45428;-84
2022/04/14 07:11:01;;;;;;;;;46.00;39.33;;;;;32.64;26.08;101675.59;5031799;28;45984;-83
2022/04/14 07:13:26;;;;;;;;;49.33;40.67;;;;;32.79;26.48;101692.19;5026425;28;45463;-84
2022/04/14 07:15:51;;;;;;;;;48.33;41.00;;;;;32.71;26.36;101686.25;5019051;28;45552;-84
2022/04/14 07:18:17;;;;;;;;;53.25;43.75;;;;;32.30;26.30;101647.38;5036390;28;45608;-83
2022/04/14 07:20:44;;;;;;;;;52.33;42.00;;;;;32.45;26.50;101659.31;5036516;28;45457;-84
2022/04/14 07:23:09;;;;;;;;;50.00;41.33;;;;;32.58;25.99;101664.09;5020127;28;45531;-85
2022/04/14 07:25:35;;;;;;;;;54.00;43.33;;;;;32.76;26.01;101685.00;5015028;28;45675;-84
2022/04/14 07:28:01;;;;;;;;;46.00;38.33;;;;;32.83;25.83;101686.41;5015182;28;47402;-84
2022/04/14 07:30:27;;;;;;;;;48.33;39.00;;;;;33.01;26.00;101708.25;5015081;28;46128;-83
2022/04/14 07:32:54;;;;;;;;;45.33;39.00;;;;;33.00;25.85;101700.97;5029486;28;45336;-84
2022/04/14 07:35:22;;;;;;;;;47.67;39.33;;;;;32.86;25.99;101677.09;5016572;28;45413;-84
2022/04/14 07:37:48;;;;;;;;;49.00;39.00;;;;;32.91;25.54;101672.19;5014848;28;47470;-84
2022/04/14 07:40:14;;;;;;;;;47.33;39.00;;;;;32.91;25.23;101671.28;5015062;28;45952;-83
2022/04/14 07:42:41;;;;;;;;;44.67;36.67;;;;;33.34;25.04;101701.69;5016501;28;45425;-84
2022/04/14 07:45:09;;;;;;;;;42.67;37.00;;;;;33.49;25.63;101717.22;5014988;28;45455;-85
2022/04/14 07:47:35;;;;;;;;;41.33;35.00;;;;;33.30;25.17;101698.22;5014039;28;47250;-86
2022/04/14 07:50:00;;;;;;;;;47.67;37.33;;;;;33.23;25.05;101683.09;5014932;28;45589;-84
2022/04/14 07:52:26;;;;;;;;;46.00;35.67;;;;;33.42;24.79;101684.69;5014803;28;45347;-85
2022/04/14 07:54:51;;;;;;;;;45.67;36.00;;;;;33.30;25.41;101700.97;5016149;28;45442;-83
2022/04/14 07:57:16;;;;;;;;;43.00;36.33;;;;;33.26;25.12;101687.50;5024382;28;47254;-83
2022/04/14 07:59:42;;;;;;;;;40.67;36.00;;;;;33.20;25.38;101686.00;5025242;28;45437;-83
2022/04/14 08:02:07;;;;;;;;;44.00;35.33;;;;;33.06;25.15;101681.34;5018493;28;45429;-84
2022/04/14 08:04:32;;;;;;;;;38.33;35.33;;;;;33.44;24.89;101727.63;5013652;28;46710;-82
2022/04/14 08:06:58;;;;;;;;;39.33;34.00;;;;;33.09;25.03;101678.41;5015079;28;45383;-82
2022/04/14 08:09:23;;;;;;;;;47.67;37.33;;;;;33.16;25.42;101706.41;5015780;28;45401;-88
2022/04/14 08:11:49;;;;;;;;;44.67;36.00;;;;;33.30;25.39;101689.97;5017904;28;45469;-84
2022/04/14 08:14:14;;;;;;;;;45.33;36.00;;;;;33.12;24.91;101656.25;5032127;28;45553;-87
2022/04/14 08:16:40;;;;;;;;;39.33;34.33;;;;;33.34;25.52;101707.19;5016708;28;47913;-90
2022/04/14 08:19:05;;;;;;;;;42.33;36.00;;;;;33.43;24.79;101717.63;5015185;28;45333;-85
2022/04/14 08:21:31;;;;;;;;;36.33;34.00;;;;;33.45;25.15;101731.28;5014829;28;45592;-83
2022/04/14 08:23:58;;;;;;;;;40.67;36.00;;;;;33.01;24.82;101672.53;5028704;28;45526;-87
2022/04/14 08:26:26;;;;;;;;;38.67;33.00;;;;;33.20;25.13;101693.38;4997032;28;46427;-82
2022/04/14 08:28:53;;;;;;;;;44.00;37.00;;;;;33.17;25.17;101697.19;4978012;28;45595;-83
2022/04/14 08:31:21;;;;;;;;;37.00;33.67;;;;;33.28;25.05;101729.56;4978258;28;45550;-83
2022/04/14 08:33:48;;;;;;;;;42.67;35.67;;;;;32.99;25.35;101679.97;4978816;28;45943;-83
2022/04/14 08:36:15;;;;;;;;;39.67;35.67;;;;;33.12;25.13;101692.00;4997809;28;46307;-82
2022/04/14 08:38:42;;;;;;;;;42.33;34.33;;;;;33.10;25.24;101687.56;4984525;28;45511;-82
2022/04/14 08:41:08;;;;;;;;;35.00;31.33;;;;;33.29;24.89;101710.22;4978198;28;45802;-82
2022/04/14 08:43:35;;;;;;;;;41.00;35.00;;;;;33.00;25.14;101657.00;4995627;28;45379;-83
2022/04/14 08:46:06;;;;;;;;;46.33;36.00;;;;;33.25;24.80;101710.50;4983860;28;46151;-83
2022/04/14 08:48:34;;;;;;;;;38.00;33.00;;;;;33.04;25.33;101676.91;4985810;28;45886;-82
2022/04/14 08:51:01;;;;;;;;;42.67;34.00;;;;;33.20;25.22;101699.75;4977607;28;45605;-84
2022/04/14 08:53:27;;;;;;;;;43.00;36.00;;;;;33.17;24.90;101691.69;4995427;28;45636;-83
2022/04/14 08:55:53;;;;;;;;;44.00;38.00;;;;;33.16;25.37;101696.31;4974389;28;48123;-83
2022/04/14 08:58:19;;;;;;;;;39.67;33.33;;;;;33.02;25.04;101682.50;4995462;28;46050;-83
2022/04/14 09:00:45;;;;;;;;;35.00;33.00;;;;;33.44;25.16;101724.00;4999307;28;45167;-84
2022/04/14 09:03:15;;;;;;;;;40.00;34.33;;;;;33.48;25.15;101720.06;4999102;28;45433;-83
2022/04/14 09:05:42;;;;;;;;;41.00;36.00;;;;;33.56;24.69;101727.81;4999089;28;45556;-84
2022/04/14 09:08:08;;;;;;;;;43.33;36.00;;;;;33.36;25.48;101688.69;4999060;28;45552;-83
2022/04/14 09:10:35;;;;;;;;;41.67;36.67;;;;;33.68;25.16;101711.44;4980913;28;45415;-83
2022/04/14 09:13:00;;;;;;;;;40.67;36.00;;;;;33.35;24.93;101656.69;4981215;28;45518;-84
2022/04/14 09:15:27;;;;;;;;;39.33;35.00;;;;;33.31;24.86;101652.38;4998671;28;46137;-84
2022/04/14 09:17:53;;;;;;;;;39.00;33.67;;;;;33.42;25.52;101693.84;4998991;28;45442;-84
2022/04/14 09:21:10;;;;;;;;;43.33;34.33;;;;;33.69;25.06;101709.56;4980984;28;45463;-83
2022/04/14 09:23:36;;;;;;;;;35.33;32.33;;;;;33.69;24.99;101662.78;4938236;28;45443;-84
2022/04/14 09:26:23;;;;;;;;;38.33;33.67;;;;;34.06;24.41;101723.72;4944458;28;48013;-83
2022/04/14 09:29:04;;;;;;;;;45.00;35.33;;;;;34.13;24.53;101724.22;4918774;28;45792;-83
2022/04/14 09:31:30;;;;;;;;;38.33;33.00;;;;;33.91;24.90;101698.09;4933874;28;45401;-83
2022/04/14 09:33:56;;;;;;;;;36.33;33.00;;;;;33.96;24.77;101701.41;4937956;28;45537;-83
2022/04/14 09:36:27;;;;;;;;;32.00;30.00;;;;;34.14;23.91;101726.00;4937770;28;46292;-84
2022/04/14 09:38:52;;;;;;;;;30.67;26.33;;;;;34.18;24.54;101722.94;4938167;28;45557;-83
2022/04/14 09:41:41;;;;;;;;;27.00;26.67;;;;;34.18;24.40;101703.66;4937950;28;45467;-84
2022/04/14 09:44:08;;;;;;;;;21.67;19.00;;;;;34.05;23.74;101702.72;4940170;28;45353;-83
2022/04/14 09:46:35;;;;;;;;;20.00;19.33;;;;;34.17;23.81;101717.53;4943906;28;45423;-83
2022/04/14 09:49:03;;;;;;;;;21.33;19.67;;;;;34.26;23.84;101721.53;4937565;28;45379;-83
2022/04/14 09:51:29;;;;;;;;;21.00;19.00;;;;;34.16;23.70;101683.59;4921598;28;45570;-84
2022/04/14 09:54:17;;;;;;;;;24.67;22.33;;;;;34.16;23.61;101661.56;4956951;28;45475;-83
2022/04/14 09:56:53;;;;;;;;;25.00;25.00;;;;;34.51;23.87;101718.94;4953522;28;48268;-83
2022/04/14 09:59:23;;;;;;;;;29.67;28.00;;;;;34.32;23.74;101671.59;4955331;28;45950;-84
2022/04/14 10:02:16;;;;;;;;;22.00;21.00;;;;;34.55;24.33;101707.72;5012121;28;45468;-84
2022/04/14 10:04:47;;;;;;;;;19.00;19.00;;;;;34.40;22.96;101717.91;5004866;28;45388;-85
2022/04/14 10:07:15;;;;;;;;;18.67;18.00;;;;;34.14;23.34;101654.41;4997654;28;45545;-84
2022/04/14 10:09:43;;;;;;;;;17.00;17.00;;;;;34.39;23.31;101672.94;4979285;28;45345;-85
2022/04/14 10:12:20;;;;;;;;;17.33;14.33;;;;;34.72;23.09;101721.22;4997918;28;45369;-84
2022/04/14 10:14:59;;;;;;;;;13.00;13.00;;;;;34.75;23.03;101715.50;5005084;28;45384;-83
2022/04/14 10:17:25;;;;;;;;;13.33;12.00;;;;;34.28;22.76;101631.44;4997939;28;45543;-84
2022/04/14 10:19:51;;;;;;;;;11.00;9.67;;;;;34.39;22.84;101638.97;4980281;28;45962;-84
2022/04/14 10:22:17;;;;;;;;;11.00;10.00;;;;;34.68;22.82;101689.34;4980122;28;45475;-86
2022/04/14 10:24:43;;;;;;;;;13.00;12.67;;;;;34.80;22.60;101706.97;4999899;28;45539;-84
2022/04/14 10:27:09;;;;;;;;;15.33;14.33;;;;;34.68;22.52;101675.56;4999327;28;46545;-85
2022/04/14 10:29:37;;;;;;;;;12.00;11.00;;;;;34.68;22.74;101675.56;4980022;28;45819;-84
2022/04/14 10:32:03;;;;;;;;;12.00;9.33;;;;;34.95;22.33;101713.28;4997498;28;45222;-84
2022/04/14 10:34:30;;;;;;;;;10.33;9.67;;;;;34.82;22.34;101675.53;4997726;28;45463;-84
2022/04/14 10:36:57;;;;;;;;;9.67;9.00;;;;;34.92;22.31;101674.91;4979755;28;47391;-84
2022/04/14 10:39:23;;;;;;;;;10.00;10.00;;;;;35.13;22.20;101695.44;4996615;28;45384;-83
2022/04/14 10:41:51;;;;;;;;;11.00;10.67;;;;;35.11;22.22;101686.41;4996890;28;45464;-83
2022/04/14 10:44:21;;;;;;;;;14.67;13.00;;;;;35.06;21.74;101691.34;4997347;28;45557;-84
2022/04/14 10:46:50;;;;;;;;;14.33;11.67;;;;;34.98;21.82;101694.66;4997245;28;45626;-84
2022/04/14 10:49:17;;;;;;;;;12.33;11.00;;;;;34.90;21.91;101669.50;4997125;28;45532;-83
2022/04/14 10:51:43;;;;;;;;;8.33;8.33;;;;;35.03;22.18;101684.16;4997076;28;45475;-83
2022/04/14 10:54:11;;;;;;;;;10.00;10.00;;;;;34.65;21.72;101634.44;4979241;28;45915;-83
2022/04/14 10:56:36;;;;;;;;;9.67;9.67;;;;;35.10;22.09;101705.81;4997252;28;45524;-84
2022/04/14 10:59:16;;;;;;;;;10.00;10.00;;;;;35.17;22.02;101705.25;4979037;28;45444;-84
2022/04/14 11:04:34;;;;;;;;;12.67;10.67;;;;;35.29;21.64;101697.13;5016427;28;45472;-84
2022/04/14 11:07:01;;;;;;;;;11.00;10.00;;;;;35.31;21.76;101692.41;5016474;28;45367;-85
2022/04/14 11:09:50;;;;;;;;;9.00;9.00;;;;;35.38;21.93;101697.38;5016528;28;45447;-84